地図

経路データ

SID SEASON NUMBER BASIN SUBBASIN NAME ISO_TIME NATURE LAT LON WMO_WIND WMO_PRES WMO_AGENCY TRACK_TYPE DIST2LAND LANDFALL IFLAG USA_AGENCY USA_ATCF_ID USA_LAT USA_LON USA_RECORD USA_STATUS USA_WIND USA_PRES USA_SSHS USA_R34_NE USA_R34_SE USA_R34_SW USA_R34_NW USA_R50_NE USA_R50_SE USA_R50_SW USA_R50_NW USA_R64_NE USA_R64_SE USA_R64_SW USA_R64_NW USA_POCI USA_ROCI USA_RMW USA_EYE TOKYO_LAT TOKYO_LON TOKYO_GRADE TOKYO_WIND TOKYO_PRES TOKYO_R50_DIR TOKYO_R50_LONG TOKYO_R50_SHORT TOKYO_R30_DIR TOKYO_R30_LONG TOKYO_R30_SHORT TOKYO_LAND CMA_LAT CMA_LON CMA_CAT CMA_WIND CMA_PRES HKO_LAT HKO_LON HKO_CAT HKO_WIND HKO_PRES NEWDELHI_LAT NEWDELHI_LON NEWDELHI_GRADE NEWDELHI_WIND NEWDELHI_PRES NEWDELHI_CI NEWDELHI_DP NEWDELHI_POCI REUNION_LAT REUNION_LON REUNION_TYPE REUNION_WIND REUNION_PRES REUNION_TNUM REUNION_CI REUNION_RMW REUNION_R34_NE REUNION_R34_SE REUNION_R34_SW REUNION_R34_NW REUNION_R50_NE REUNION_R50_SE REUNION_R50_SW REUNION_R50_NW REUNION_R64_NE REUNION_R64_SE REUNION_R64_SW REUNION_R64_NW BOM_LAT BOM_LON BOM_TYPE BOM_WIND BOM_PRES BOM_TNUM BOM_CI BOM_RMW BOM_R34_NE BOM_R34_SE BOM_R34_SW BOM_R34_NW BOM_R50_NE BOM_R50_SE BOM_R50_SW BOM_R50_NW BOM_R64_NE BOM_R64_SE BOM_R64_SW BOM_R64_NW BOM_ROCI BOM_POCI BOM_EYE BOM_POS_METHOD BOM_PRES_METHOD NADI_LAT NADI_LON NADI_CAT NADI_WIND NADI_PRES WELLINGTON_LAT WELLINGTON_LON WELLINGTON_WIND WELLINGTON_PRES DS824_LAT DS824_LON DS824_STAGE DS824_WIND DS824_PRES TD9636_LAT TD9636_LON TD9636_STAGE TD9636_WIND TD9636_PRES TD9635_LAT TD9635_LON TD9635_WIND TD9635_PRES TD9635_ROCI NEUMANN_LAT NEUMANN_LON NEUMANN_CLASS NEUMANN_WIND NEUMANN_PRES MLC_LAT MLC_LON MLC_CLASS MLC_WIND MLC_PRES USA_GUST BOM_GUST BOM_GUST_PER REUNION_GUST REUNION_GUST_PER USA_SEAHGT USA_SEARAD_NE USA_SEARAD_SE USA_SEARAD_SW USA_SEARAD_NW STORM_SPEED STORM_DIR
1878289N41316 1878 33 NA NA NOT_NAMED 1878-10-15 15:00:00 TS 41.0253 -44.1872 spur-other 950 948 ______________ -1 22 59
1878289N41316 1878 33 NA NA NOT_NAMED 1878-10-15 18:00:00 TS 41.6000 -42.9000 spur-other 987 987 _____________O -1 41.6000 -42.9000 HU 80 23 60
1878289N41316 1878 33 NA NA NOT_NAMED 1878-10-15 21:00:00 TS 42.1990 -41.4833 spur-other 1041 1041 _____________P -1 42.1835 -41.4642 HU 77 25 61
1878289N41316 1878 33 NA NA NOT_NAMED 1878-10-16 00:00:00 TS 42.8000 -40.0000 spur-other 1112 1112 _____________O -1 42.8000 -40.0000 HU 75 25 60
1878289N41316 1878 33 NA NA NOT_NAMED 1878-10-16 03:00:00 TS 43.4834 -38.5053 spur-other 1179 1179 _____________P -1 43.4834 -38.5053 HU 72 26 57
1878289N41316 1878 33 NA NA NOT_NAMED 1878-10-16 06:00:00 TS 44.2000 -37.0000 spur-other 1255 1255 _____________O -1 44.2000 -37.0000 HU 70 26 57
1878289N41316 1878 33 NA NA NOT_NAMED 1878-10-16 09:00:00 TS 44.8980 -35.4964 spur-other 1339 1339 _____________P -1 44.8980 -35.4964 HU 67 25 57
1878289N41316 1878 33 NA NA NOT_NAMED 1878-10-16 12:00:00 ET 45.6000 -34.0000 spur-other 1428 1428 _____________O -1 45.6000 -34.0000 EX 65 25 56
1878289N41316 1878 33 NA NA NOT_NAMED 1878-10-16 15:00:00 ET 46.2906 -32.4956 spur-other 1522 1522 _____________P -1 46.2906 -32.4956 EX 62 25 56
1878289N41316 1878 33 NA NA NOT_NAMED 1878-10-16 18:00:00 ET 47.0000 -31.0000 spur-other 1569 1441 _____________O -1 47.0000 -31.0000 EX 60 25 54
1878289N41316 1878 33 NA NA NOT_NAMED 1878-10-16 21:00:00 ET 47.7391 -29.5321 spur-other 1434 1302 _____________P -1 47.7391 -29.5321 EX 60 25 53
1878289N41316 1878 33 NA NA NOT_NAMED 1878-10-17 00:00:00 ET 48.5000 -28.0000 spur-other 1296 1152 _____________O -1 48.5000 -28.0000 EX 60 27 49
1878289N41316 1878 33 NA NA NOT_NAMED 1878-10-17 03:00:00 ET 49.5306 -26.3686 spur-other 1146 1006 _____________P -1 49.5306 -26.3686 EX 60 27 57
1878289N41316 1878 33 NA NA NOT_NAMED 1878-10-17 06:00:00 ET 50.0000 -24.5000 spur-other 999 904 _____________O -1 50.0000 -24.5000 EX 60 25 99
1878289N41316 1878 33 NA NA NOT_NAMED 1878-10-17 09:00:00 ET 49.1226 -22.4726 spur-other 902 839 _____________P -1 49.1226 -22.4726 EX 60 36 130
1878289N41316 1878 33 NA NA NOT_NAMED 1878-10-17 12:00:00 ET 47.7000 -20.3000 spur-other 840 778 _____________O -1 47.7000 -20.3000 EX 60 41 129
1878289N41316 1878 33 NA NA NOT_NAMED 1878-10-17 15:00:00 ET 46.4898 -17.6996 spur-other 766 571 _____________P -1 46.4898 -17.6996 EX 55 40 124
1878289N41316 1878 33 NA NA NOT_NAMED 1878-10-17 18:00:00 ET 45.5000 -15.5000 spur-other 564 475 _____________O -1 45.5000 -15.5000 EX 50 27 122
1878289N41316 1878 33 NA NA NOT_NAMED 1878-10-17 21:00:00 ET 45.0362 -14.4433 spur-other 463 411 _____________P -1 45.0362 -14.4433 EX 47 14 120
1878289N41316 1878 33 NA NA NOT_NAMED 1878-10-18 00:00:00 ET 44.8000 -13.8000 spur-other 411 339 _____________O -1 44.8000 -13.8000 EX 45 12 119
1878289N41316 1878 33 NA NA NOT_NAMED 1878-10-18 03:00:00 ET 44.4527 -12.9770 spur-other 339 250 _____________P -1 44.4527 -12.9770 EX 42 15 122
1878289N41316 1878 33 NA NA NOT_NAMED 1878-10-18 06:00:00 ET 44.0000 -12.0000 spur-other 243 _____________O -1 44.0000 -12.0000 EX 40 17 123

IBTrACS Databaseについて

本データベースは、米国NOAAが公開する1842年以降の世界の熱帯低気圧のベストトラックデータアーカイブInternational Best Track Archive for Climate Stewardship (IBTrACS)を、ウェブで閲覧しやすい形式に変換したものです。

最終更新日:2021-10-08